Terminal Aerodrome Forecast
Issued by NWS

Home | Current Version | Previous Version | Text Only | Print | Product List | Glossary On
Versions: 1 2 3 4 5 6 7 8 9 10 11 12 13 14 15 16 17 18 19 20 21 22 23 24 25 26
000
FTUS45 KLKN 192320
TAFWMC
TAF
KWMC 192320Z 2000/2024 08010G20KT P6SM SCT200 BKN250
     FM200200 07020G30KT P6SM FEW070 OVC200
     FM200900 07020G30KT P6SM SCT080 BKN100
     FM201400 06011KT P6SM VCSH SCT040 OVC060
     FM202200 06010KT P6SM -SHRA SCT025 BKN040=

USA.gov is the U.S. government's official web portal to all federal, state and local government web resources and services.